Time;durP1;ratioP1;P1;durP2;ratioP2;P2;SDS_P1;SDS_P2;PMS_P1;PMS_P2;Temp;Humidity;BMP_temperature;BMP_pressure;BME280_temperature;BME280_humidity;BME280_pressure;Samples;Min_cycle;Max_cycle;Signal;HPM_P1;HPM_P2
2023/04/03 00:00:52;;;;;;;7.80;3.40;;;;;;;9.02;79.15;98332.04;79402;1300;3013219;-65
2023/04/03 00:03:41;;;;;;;9.00;4.40;;;;;;;9.10;78.42;98329.89;78207;1295;3069538;-67
2023/04/03 00:06:09;;;;;;;11.10;4.10;;;;;;;8.97;78.53;98331.36;79508;1295;3013748;-65
2023/04/03 00:08:39;;;;;;;6.80;3.60;;;;;;;8.83;79.19;98327.82;78944;1295;3011410;-67
2023/04/03 00:11:06;;;;;;;9.10;4.20;;;;;;;8.56;80.35;98321.52;79467;1296;3012656;-66
2023/04/03 00:13:33;;;;;;;7.30;3.80;;;;;;;8.39;81.03;98323.70;79268;1295;3012472;-68
2023/04/03 00:16:03;;;;;;;7.50;3.70;;;;;;;8.13;82.65;98317.30;78187;1301;3053541;-66
2023/04/03 00:18:41;;;;;;;7.50;4.10;;;;;;;8.06;83.45;98311.52;78201;1301;3052863;-70
2023/04/03 00:21:09;;;;;;;5.20;2.30;;;;;;;7.98;84.32;98309.08;79265;1295;3013859;-64
2023/04/03 00:23:35;;;;;;;3.20;2.20;;;;;;;8.50;83.35;98305.83;79362;1295;3013301;-66
2023/04/03 00:26:11;;;;;;;5.80;2.60;;;;;;;9.02;80.99;98299.93;78178;1301;3050731;-65
2023/04/03 00:28:42;;;;;;;6.70;3.40;;;;;;;8.97;80.38;98292.38;79448;1295;3011730;-67
2023/04/03 00:31:10;;;;;;;6.60;2.80;;;;;;;8.86;81.24;98293.36;78166;1301;3030185;-65
2023/04/03 00:33:38;;;;;;;6.40;3.00;;;;;;;8.70;81.75;98295.52;79485;1300;3013387;-67
2023/04/03 00:36:07;;;;;;;5.90;3.30;;;;;;;8.57;82.28;98284.64;79412;1299;3012561;-67
2023/04/03 00:38:36;;;;;;;7.10;3.80;;;;;;;8.40;83.04;98282.45;78237;1295;3051465;-63
2023/04/03 00:41:02;;;;;;;6.40;3.20;;;;;;;8.24;83.78;98282.16;79429;1301;3018825;-65
2023/04/03 00:43:29;;;;;;;3.30;2.10;;;;;;;8.15;84.33;98281.05;79412;1295;3013071;-67
2023/04/03 00:45:57;;;;;;;6.30;2.40;;;;;;;8.56;83.55;98280.87;78190;1299;3027468;-64
2023/04/03 00:48:32;;;;;;;5.30;2.50;;;;;;;9.00;81.74;98281.91;79406;1298;3013013;-64
2023/04/03 00:51:00;;;;;;;4.60;3.60;;;;;;;9.14;80.98;98284.73;78177;1301;3067370;-65
2023/04/03 00:53:32;;;;;;;4.80;3.40;;;;;;;8.97;81.13;98286.83;79405;1295;3013019;-65
2023/04/03 00:56:00;;;;;;;7.30;3.60;;;;;;;8.72;81.99;98289.82;78207;1295;3058163;-64
2023/04/03 00:58:33;;;;;;;8.70;4.20;;;;;;;8.57;82.91;98286.68;79411;1295;3014884;-64
2023/04/03 01:01:05;;;;;;;6.60;4.10;;;;;;;8.40;83.85;98281.94;78178;1295;3048722;-63
2023/04/03 01:03:32;;;;;;;7.10;3.70;;;;;;;8.28;84.58;98282.78;79517;1301;3011580;-65
2023/04/03 01:06:01;;;;;;;5.40;2.00;;;;;;;8.18;85.86;98283.31;78221;1300;3053429;-65
2023/04/03 01:08:28;;;;;;;5.90;2.40;;;;;;;8.69;84.81;98278.49;79364;1295;3013071;-67
2023/04/03 01:10:55;;;;;;;5.40;2.80;;;;;;;9.15;82.49;98275.23;79390;1295;3011433;-66
2023/04/03 01:13:28;;;;;;;5.00;3.00;;;;;;;9.23;81.96;98270.42;78154;1301;3049702;-65
2023/04/03 01:15:55;;;;;;;5.60;3.20;;;;;;;9.14;82.10;98266.39;79445;1295;3012012;-65
2023/04/03 01:18:23;;;;;;;5.60;3.50;;;;;;;8.90;82.75;98272.15;78157;1298;3049412;-66
2023/04/03 01:21:16;;;;;;;5.20;3.40;;;;;;;8.66;83.93;98268.98;79385;1301;3011368;-64
2023/04/03 01:23:58;;;;;;;5.10;3.50;;;;;;;8.46;85.25;98268.45;78157;1295;3068922;-64
2023/04/03 01:26:27;;;;;;;6.90;5.10;;;;;;;8.38;85.94;98270.73;78168;1296;3052854;-65
2023/04/03 01:28:54;;;;;;;3.20;2.60;;;;;;;8.28;86.68;98268.97;79317;1295;3012864;-64
2023/04/03 01:31:29;;;;;;;4.70;3.00;;;;;;;8.73;85.82;98269.15;79459;1295;3011639;-65
2023/04/03 01:33:57;;;;;;;4.70;3.30;;;;;;;9.26;83.51;98256.27;78199;1295;3051293;-63
2023/04/03 01:36:28;;;;;;;3.80;3.00;;;;;;;9.38;82.79;98252.91;79447;1299;3018527;-66
2023/04/03 01:38:58;;;;;;;5.20;3.30;;;;;;;9.18;82.96;98248.76;78736;1301;3011764;-65
2023/04/03 01:41:25;;;;;;;6.00;3.90;;;;;;;9.03;83.49;98241.66;79391;1295;3013341;-67
2023/04/03 01:43:55;;;;;;;6.00;4.60;;;;;;;8.85;84.16;98239.79;78229;1295;3028050;-64
2023/04/03 01:46:22;;;;;;;5.40;4.80;;;;;;;8.60;85.29;98240.73;79421;1295;3013042;-67
2023/04/03 01:48:48;;;;;;;4.00;2.30;;;;;;;8.49;86.43;98242.44;79443;1299;3011574;-67
2023/04/03 01:51:17;;;;;;;3.10;2.10;;;;;;;8.83;85.78;98234.87;78134;1300;3048698;-65
2023/04/03 01:53:43;;;;;;;3.10;2.30;;;;;;;9.42;83.74;98239.48;79340;1301;3019026;-68
2023/04/03 01:56:10;;;;;;;7.30;3.30;;;;;;;9.45;82.79;98240.44;79374;1296;3011540;-67
2023/04/03 01:58:38;;;;;;;5.50;4.00;;;;;;;9.28;83.05;98244.55;78172;1301;3029557;-66
2023/04/03 02:01:05;;;;;;;6.70;5.00;;;;;;;9.08;83.93;98245.15;79389;1301;3013018;-69
2023/04/03 02:03:33;;;;;;;4.60;4.20;;;;;;;8.88;84.79;98245.58;79346;1295;3011629;-67
2023/04/03 02:06:01;;;;;;;4.70;3.80;;;;;;;8.71;85.67;98240.67;78137;1295;3050607;-68
2023/04/03 02:08:33;;;;;;;4.00;2.30;;;;;;;8.62;86.52;98240.48;79441;1300;3011866;-66
2023/04/03 02:11:01;;;;;;;2.00;1.70;;;;;;;9.08;85.55;98237.14;78134;1298;3053435;-68
2023/04/03 02:13:28;;;;;;;2.50;2.30;;;;;;;9.61;83.11;98237.36;79373;1298;3013340;-67
2023/04/03 02:15:55;;;;;;;3.90;2.30;;;;;;;9.67;82.10;98237.57;79324;1298;3013450;-70
2023/04/03 02:18:23;;;;;;;2.90;2.40;;;;;;;9.45;82.43;98235.74;78209;1301;3050664;-69
2023/04/03 02:20:53;;;;;;;4.30;2.40;;;;;;;9.22;83.24;98226.83;79405;1299;3011455;-68
2023/04/03 02:23:22;;;;;;;2.10;1.80;;;;;;;8.95;84.22;98224.77;78875;1301;3012511;-64
2023/04/03 02:25:50;;;;;;;3.40;1.90;;;;;;;8.74;85.15;98218.64;79436;1300;3012995;-64
2023/04/03 02:28:20;;;;;;;4.30;2.20;;;;;;;8.56;86.46;98216.82;78900;1300;3011888;-67
2023/04/03 02:30:46;;;;;;;2.20;1.50;;;;;;;8.42;87.60;98209.55;79364;1300;3019289;-67
2023/04/03 02:33:15;;;;;;;2.20;1.70;;;;;;;8.83;86.80;98202.83;79392;1300;3011627;-65
2023/04/03 02:35:53;;;;;;;2.50;1.60;;;;;;;9.34;84.65;98210.54;78182;1298;3050743;-67
2023/04/03 02:38:21;;;;;;;6.10;2.70;;;;;;;9.35;84.07;98208.67;79484;1295;3011790;-67
2023/04/03 02:41:03;;;;;;;8.90;4.00;;;;;;;9.29;84.16;98211.95;78172;1301;3051801;-66
2023/04/03 02:43:32;;;;;;;7.70;4.10;;;;;;;9.07;84.87;98209.59;78152;1301;3052597;-67
2023/04/03 02:46:00;;;;;;;8.70;5.10;;;;;;;8.91;85.43;98204.81;79429;1299;3013144;-64
2023/04/03 02:48:27;;;;;;;8.30;5.70;;;;;;;8.64;86.63;98206.25;79409;1301;3012847;-67
2023/04/03 02:50:55;;;;;;;6.40;2.80;;;;;;;8.45;87.94;98203.98;78163;1301;3056961;-65
2023/04/03 02:53:22;;;;;;;3.60;2.20;;;;;;;8.96;87.58;98203.61;79280;1298;3013447;-67
2023/04/03 02:55:51;;;;;;;6.00;2.50;;;;;;;9.50;84.88;98204.48;79393;1296;3011704;-67
2023/04/03 02:58:19;;;;;;;3.90;2.00;;;;;;;9.54;84.02;98204.98;78172;1301;3053641;-66
2023/04/03 03:00:46;;;;;;;6.50;2.70;;;;;;;9.35;84.11;98205.75;79370;1299;3019227;-67
2023/04/03 03:03:13;;;;;;;5.70;2.80;;;;;;;9.08;85.20;98203.76;79406;1295;3011590;-66
2023/04/03 03:05:41;;;;;;;6.50;3.90;;;;;;;8.93;85.98;98202.23;78176;1301;3057006;-63
2023/04/03 03:08:09;;;;;;;4.60;4.10;;;;;;;8.70;86.93;98202.83;79445;1295;3013170;-65
2023/04/03 03:10:36;;;;;;;2.10;1.50;;;;;;;8.55;88.07;98205.16;79421;1299;3011781;-66
2023/04/03 03:13:05;;;;;;;2.40;1.70;;;;;;;9.01;87.43;98201.48;78243;1301;3052753;-65
2023/04/03 03:15:34;;;;;;;4.40;1.90;;;;;;;9.61;85.05;98202.91;79434;1295;3013013;-66
2023/04/03 03:18:04;;;;;;;3.00;2.30;;;;;;;9.67;83.83;98197.70;78219;1301;3068930;-68
2023/04/03 03:20:34;;;;;;;3.00;2.30;;;;;;;9.56;83.96;98195.05;79386;1301;3013061;-67
2023/04/03 03:23:03;;;;;;;3.00;2.10;;;;;;;9.31;84.58;98197.64;79020;1300;3011832;-67
2023/04/03 03:25:30;;;;;;;3.30;2.80;;;;;;;9.10;85.39;98191.17;79432;1295;3013277;-68
2023/04/03 03:27:57;;;;;;;4.90;4.00;;;;;;;8.91;86.12;98192.40;79413;1295;3013253;-64
2023/04/03 03:30:26;;;;;;;2.60;1.50;;;;;;;8.72;87.09;98194.52;77977;1301;3053111;-66
2023/04/03 03:32:53;;;;;;;1.50;1.30;;;;;;;9.17;86.60;98189.13;79386;1301;3013072;-63
2023/04/03 03:35:20;;;;;;;1.80;1.50;;;;;;;9.69;84.32;98190.02;79445;1300;3011660;-67
2023/04/03 03:37:51;;;;;;;3.30;1.80;;;;;;;9.71;83.35;98186.75;78184;1296;3056005;-66
2023/04/03 03:40:18;;;;;;;2.40;1.80;;;;;;;9.56;83.55;98188.23;79526;1301;3013043;-65
2023/04/03 03:42:44;;;;;;;3.40;2.90;;;;;;;9.32;84.30;98188.01;79296;1296;3013628;-67
2023/04/03 03:45:13;;;;;;;4.00;2.60;;;;;;;9.08;85.45;98186.43;78189;1301;3030029;-65
2023/04/03 03:47:39;;;;;;;3.90;3.40;;;;;;;8.92;86.26;98185.19;79334;1298;3013422;-66
2023/04/03 03:50:07;;;;;;;2.20;1.50;;;;;;;8.73;87.44;98184.65;79407;1300;3011628;-64
2023/04/03 03:52:35;;;;;;;2.20;1.80;;;;;;;9.16;86.71;98181.80;78210;1296;3058103;-67
2023/04/03 03:55:02;;;;;;;2.00;1.40;;;;;;;9.77;84.35;98181.95;79449;1296;3013039;-67
2023/04/03 03:57:30;;;;;;;2.20;1.70;;;;;;;9.83;83.10;98180.89;79259;1296;3013907;-64
2023/04/03 03:59:58;;;;;;;3.80;2.20;;;;;;;9.65;83.25;98180.54;78158;1301;3053258;-64
2023/04/03 04:02:25;;;;;;;3.40;2.40;;;;;;;9.38;84.11;98180.57;79485;1301;3012897;-65
2023/04/03 04:04:53;;;;;;;2.90;2.10;;;;;;;9.23;84.84;98176.96;79432;1298;3011799;-66
2023/04/03 04:07:21;;;;;;;2.50;1.90;;;;;;;9.11;85.48;98181.01;78228;1295;3055253;-63
2023/04/03 04:09:48;;;;;;;1.90;1.30;;;;;;;8.98;86.24;98180.92;79476;1295;3012734;-66
2023/04/03 04:12:15;;;;;;;2.00;1.40;;;;;;;9.35;85.36;98179.91;79387;1296;3012098;-67
2023/04/03 04:14:50;;;;;;;2.00;1.50;;;;;;;9.77;83.50;98182.09;78278;1300;3053778;-65
2023/04/03 04:17:17;;;;;;;2.70;2.00;;;;;;;9.91;82.82;98181.02;79284;1300;3013577;-67
2023/04/03 04:19:44;;;;;;;2.20;1.80;;;;;;;9.76;82.85;98175.35;79304;1299;3013226;-66
2023/04/03 04:22:12;;;;;;;3.40;2.10;;;;;;;9.53;83.35;98177.98;78141;1295;3026538;-67
2023/04/03 04:24:39;;;;;;;3.60;2.00;;;;;;;9.35;84.05;98174.44;79396;1301;3013646;-66
2023/04/03 04:27:12;;;;;;;2.40;1.60;;;;;;;9.10;85.15;98173.90;78288;1301;3049839;-65
2023/04/03 04:29:38;;;;;;;1.10;1.00;;;;;;;8.99;86.11;98170.00;79379;1301;3012134;-66
2023/04/03 04:32:06;;;;;;;1.90;1.50;;;;;;;9.43;85.22;98169.84;79435;1301;3011613;-67
2023/04/03 04:34:34;;;;;;;2.90;2.10;;;;;;;9.81;83.14;98169.01;78154;1301;3052822;-64
2023/04/03 04:37:01;;;;;;;2.50;2.00;;;;;;;9.79;83.05;98163.23;79535;1295;3013405;-65
2023/04/03 04:39:28;;;;;;;3.20;2.40;;;;;;;9.64;83.24;98166.66;79370;1300;3011502;-66
2023/04/03 04:41:58;;;;;;;5.80;3.30;;;;;;;9.46;83.94;98163.17;78321;1298;3050082;-65
2023/04/03 04:44:33;;;;;;;5.30;3.40;;;;;;;9.24;84.82;98165.02;79031;1295;3011700;-67
2023/04/03 04:47:00;;;;;;;4.10;3.50;;;;;;;8.94;86.23;98162.37;79589;1301;3013626;-67
2023/04/03 04:49:27;;;;;;;2.70;1.70;;;;;;;8.87;87.16;98158.48;79575;1298;3011771;-69
2023/04/03 04:51:57;;;;;;;1.70;1.60;;;;;;;9.30;86.32;98161.39;78407;1299;3052318;-64
2023/04/03 04:54:27;;;;;;;3.50;2.20;;;;;;;9.74;84.06;98159.95;79589;1295;3011757;-67
2023/04/03 04:57:00;;;;;;;2.80;2.40;;;;;;;9.76;83.42;98159.83;78267;1301;3050095;-66
2023/04/03 04:59:27;;;;;;;4.00;3.10;;;;;;;9.59;83.63;98158.29;79552;1301;3012847;-66
2023/04/03 05:01:55;;;;;;;4.50;3.70;;;;;;;9.38;84.51;98155.56;79421;1310;3012927;-65
2023/04/03 05:04:23;;;;;;;6.30;3.40;;;;;;;9.26;85.12;98156.61;78182;1299;3053984;-68
2023/04/03 05:06:53;;;;;;;4.70;3.90;;;;;;;9.14;85.55;98158.91;79482;1301;3013787;-65
2023/04/03 05:09:24;;;;;;;3.10;2.20;;;;;;;8.99;86.18;98159.70;78309;1295;3052674;-65
2023/04/03 05:11:56;;;;;;;2.30;2.00;;;;;;;9.47;85.18;98155.55;79504;1300;3013435;-68
2023/04/03 05:14:27;;;;;;;2.10;1.70;;;;;;;9.94;83.01;98152.96;78284;1298;3049067;-66
2023/04/03 05:16:54;;;;;;;2.90;2.10;;;;;;;9.92;82.47;98155.90;79447;1298;3013725;-65
2023/04/03 05:19:25;;;;;;;3.80;2.80;;;;;;;9.76;82.69;98157.18;78919;1298;3011526;-68
2023/04/03 05:21:51;;;;;;;3.80;2.10;;;;;;;9.61;83.62;98156.04;79625;1301;3018340;-68
2023/04/03 05:24:19;;;;;;;3.00;2.60;;;;;;;9.42;84.34;98155.80;79504;1298;3011771;-68
2023/04/03 05:26:47;;;;;;;3.50;2.50;;;;;;;9.32;85.00;98154.61;78101;1301;3051664;-69
2023/04/03 05:29:15;;;;;;;1.70;1.50;;;;;;;9.16;85.58;98153.31;79550;1296;3016076;-67
2023/04/03 05:31:42;;;;;;;2.10;1.80;;;;;;;9.55;85.05;98155.98;79536;1295;3013191;-69
2023/04/03 05:34:11;;;;;;;2.40;1.90;;;;;;;10.00;82.78;98156.66;78309;1295;3049307;-66
2023/04/03 05:36:38;;;;;;;2.20;1.90;;;;;;;10.11;82.23;98155.98;79436;1301;3015747;-67
2023/04/03 05:39:06;;;;;;;3.10;2.10;;;;;;;9.94;82.17;98153.52;79500;1300;3011681;-69
2023/04/03 05:41:35;;;;;;;4.40;3.40;;;;;;;9.74;82.95;98159.63;78282;1296;3053373;-68
2023/04/03 05:44:01;;;;;;;3.40;2.90;;;;;;;9.59;83.67;98161.48;79706;1295;3018652;-67
2023/04/03 05:46:28;;;;;;;4.60;3.10;;;;;;;9.37;84.72;98157.23;79456;1301;3011482;-67
2023/04/03 05:48:57;;;;;;;2.10;1.60;;;;;;;9.29;85.26;98158.13;78273;1302;3050278;-68
2023/04/03 05:51:32;;;;;;;2.20;1.70;;;;;;;9.67;84.40;98161.55;79589;1300;3013107;-66
2023/04/03 05:54:08;;;;;;;2.40;1.80;;;;;;;10.10;82.15;98154.68;78183;1301;3052803;-67
2023/04/03 05:56:35;;;;;;;1.50;1.40;;;;;;;10.09;81.73;98159.30;79405;1304;3013177;-63
2023/04/03 05:59:03;;;;;;;4.70;2.20;;;;;;;9.94;82.22;98160.17;78209;1295;3051869;-67
2023/04/03 06:01:30;;;;;;;3.90;2.50;;;;;;;9.78;82.93;98162.27;79404;1301;3013036;-68
2023/04/03 06:03:58;;;;;;;3.50;3.20;;;;;;;9.64;83.52;98161.61;79366;1295;3011428;-70
2023/04/03 06:06:26;;;;;;;5.80;3.90;;;;;;;9.51;83.99;98164.02;78721;1295;3050737;-68
2023/04/03 06:08:52;;;;;;;4.40;3.20;;;;;;;9.42;84.62;98163.29;79505;1301;3019038;-68
2023/04/03 06:11:22;;;;;;;1.40;1.30;;;;;;;9.28;85.66;98163.84;79420;1304;3013116;-68
2023/04/03 06:13:50;;;;;;;2.40;1.90;;;;;;;9.80;84.23;98163.18;78248;1295;3050832;-69
2023/04/03 06:16:21;;;;;;;4.90;2.90;;;;;;;10.35;81.73;98162.13;79887;1298;3013121;-68
2023/04/03 06:18:49;;;;;;;5.20;3.20;;;;;;;10.48;80.99;98166.72;78151;1296;3026459;-66
2023/04/03 06:21:15;;;;;;;3.00;2.40;;;;;;;10.32;81.39;98166.27;79598;1301;3013006;-70
2023/04/03 06:23:43;;;;;;;4.20;2.90;;;;;;;10.13;81.72;98167.58;79646;1296;3013144;-66
2023/04/03 06:26:11;;;;;;;3.90;3.20;;;;;;;9.96;82.62;98163.72;78779;1295;3054904;-67
2023/04/03 06:28:41;;;;;;;6.00;4.00;;;;;;;9.86;83.05;98165.29;79778;1301;3012009;-67
2023/04/03 06:31:09;;;;;;;8.20;3.90;;;;;;;9.74;83.52;98166.63;79249;1295;3011723;-68
2023/04/03 06:33:37;;;;;;;2.60;1.70;;;;;;;9.66;84.23;98167.54;79882;1301;3015268;-66
2023/04/03 06:36:05;;;;;;;3.10;1.90;;;;;;;10.15;82.87;98166.92;79780;1295;3011932;-70
2023/04/03 06:38:33;;;;;;;5.30;2.20;;;;;;;10.64;80.95;98169.10;78629;1298;3050181;-67
2023/04/03 06:41:00;;;;;;;4.30;2.40;;;;;;;10.73;80.44;98170.30;79450;1298;3011425;-65
2023/04/03 06:43:26;;;;;;;3.10;2.40;;;;;;;10.53;80.72;98167.36;79522;1298;3012000;-71
2023/04/03 06:45:54;;;;;;;3.70;2.40;;;;;;;10.46;81.16;98170.88;78406;1298;3026538;-69
2023/04/03 06:48:21;;;;;;;3.20;2.40;;;;;;;10.26;81.88;98169.14;79595;1296;3013406;-66
2023/04/03 06:50:48;;;;;;;3.60;2.70;;;;;;;10.07;82.75;98174.36;79258;1295;3013267;-67
2023/04/03 06:53:16;;;;;;;3.30;2.60;;;;;;;9.94;83.44;98174.61;78223;1298;3049956;-69
2023/04/03 06:55:42;;;;;;;2.60;1.70;;;;;;;9.80;84.58;98173.48;79477;1301;3013188;-68
2023/04/03 06:58:09;;;;;;;1.60;1.30;;;;;;;10.31;83.67;98173.35;79554;1298;3012766;-68
2023/04/03 07:00:37;;;;;;;2.40;1.80;;;;;;;10.87;81.47;98174.40;78331;1295;3027256;-65
2023/04/03 07:03:05;;;;;;;2.30;1.90;;;;;;;10.97;80.62;98170.32;79498;1298;3013078;-65
2023/04/03 07:05:32;;;;;;;3.50;2.90;;;;;;;10.80;80.84;98172.23;79648;1296;3011811;-64
2023/04/03 07:08:00;;;;;;;4.10;3.20;;;;;;;10.56;81.71;98175.39;78492;1300;3049498;-66
2023/04/03 07:10:27;;;;;;;3.40;2.60;;;;;;;10.43;82.35;98171.84;79552;1298;3018337;-66
2023/04/03 07:12:53;;;;;;;2.90;2.60;;;;;;;10.28;82.82;98172.11;79346;1298;3011959;-63
2023/04/03 07:15:21;;;;;;;4.30;3.40;;;;;;;10.09;83.60;98173.09;78037;1296;3026935;-67
2023/04/03 07:17:48;;;;;;;2.10;1.60;;;;;;;10.04;84.42;98173.03;79598;1297;3013893;-66
2023/04/03 07:20:15;;;;;;;2.30;1.50;;;;;;;10.58;83.13;98169.96;79243;1298;3011657;-70
2023/04/03 07:22:43;;;;;;;2.00;1.30;;;;;;;11.14;80.64;98171.15;78490;1298;3049315;-68
2023/04/03 07:25:10;;;;;;;3.40;1.20;;;;;;;11.10;79.96;98174.30;79531;1298;3012755;-70
2023/04/03 07:27:37;;;;;;;2.60;2.10;;;;;;;10.94;80.49;98171.23;79476;1301;3011852;-67
2023/04/03 07:30:06;;;;;;;4.00;2.70;;;;;;;10.84;80.90;98177.48;78253;1299;3029804;-69
2023/04/03 07:32:35;;;;;;;4.40;2.90;;;;;;;10.68;81.48;98176.68;79439;1295;3015076;-66
2023/04/03 07:35:04;;;;;;;4.90;2.80;;;;;;;10.58;81.91;98175.39;79019;1295;3011824;-70
2023/04/03 07:37:32;;;;;;;7.80;2.80;;;;;;;10.42;82.52;98177.73;79641;1300;3018353;-68
2023/04/03 07:39:59;;;;;;;2.80;1.80;;;;;;;10.34;83.18;98179.38;79496;1295;3011911;-67
2023/04/03 07:42:27;;;;;;;2.70;2.00;;;;;;;10.77;81.95;98182.55;78391;1298;3052052;-71
2023/04/03 07:44:54;;;;;;;3.20;2.00;;;;;;;11.33;79.91;98182.00;79561;1298;3013145;-68
2023/04/03 07:47:20;;;;;;;2.90;2.00;;;;;;;11.43;79.26;98184.89;79458;1296;3013402;-69
2023/04/03 07:49:49;;;;;;;3.60;2.50;;;;;;;11.35;79.21;98183.23;78337;1295;3026684;-67
2023/04/03 07:52:15;;;;;;;5.70;3.00;;;;;;;11.17;79.91;98188.83;79541;1298;3013218;-67
2023/04/03 07:54:43;;;;;;;5.30;4.30;;;;;;;11.09;80.33;98191.92;79562;1295;3012754;-67
2023/04/03 07:57:11;;;;;;;5.70;4.40;;;;;;;10.92;81.02;98190.64;78249;1301;3053903;-69
2023/04/03 07:59:39;;;;;;;5.00;4.30;;;;;;;10.82;81.69;98194.13;79434;1300;3013219;-66
2023/04/03 08:02:09;;;;;;;3.30;2.30;;;;;;;10.76;82.07;98194.60;79470;1296;3011942;-66
2023/04/03 08:04:37;;;;;;;3.30;2.50;;;;;;;11.26;81.20;98197.30;78313;1300;3049500;-68
2023/04/03 08:07:03;;;;;;;3.80;2.90;;;;;;;11.83;79.06;98198.48;79541;1298;3013473;-69
2023/04/03 08:09:36;;;;;;;3.60;2.90;;;;;;;11.92;78.46;98201.42;78344;1308;3052221;-68
2023/04/03 08:12:03;;;;;;;5.80;3.70;;;;;;;11.79;78.91;98199.75;79582;1298;3013735;-69
2023/04/03 08:14:34;;;;;;;5.50;4.10;;;;;;;11.59;79.46;98199.64;79442;1298;3015770;-67
2023/04/03 08:17:04;;;;;;;5.10;3.70;;;;;;;11.46;79.77;98200.93;78463;1296;3056297;-69
2023/04/03 08:19:32;;;;;;;5.20;3.50;;;;;;;11.31;80.67;98201.67;79652;1298;3013159;-68
2023/04/03 08:22:00;;;;;;;4.80;3.60;;;;;;;11.21;81.31;98202.14;79645;1295;3013420;-67
2023/04/03 08:24:29;;;;;;;3.00;1.60;;;;;;;11.10;82.27;98203.58;78407;1298;3052712;-66
2023/04/03 08:26:56;;;;;;;2.20;1.30;;;;;;;11.56;81.26;98209.48;79629;1298;3012763;-69
2023/04/03 08:29:22;;;;;;;4.20;1.70;;;;;;;12.17;78.89;98214.75;79614;1296;3011688;-69
2023/04/03 08:31:50;;;;;;;4.50;2.40;;;;;;;12.32;78.17;98215.70;78354;1295;3055951;-70
2023/04/03 08:34:18;;;;;;;4.40;2.40;;;;;;;12.21;78.11;98216.49;79538;1298;3013002;-69
2023/04/03 08:36:46;;;;;;;6.30;3.50;;;;;;;11.99;78.54;98215.92;79536;1295;3011626;-69
2023/04/03 08:39:13;;;;;;;8.20;4.10;;;;;;;11.75;79.07;98217.20;78325;1298;3051269;-68
2023/04/03 08:41:43;;;;;;;5.80;4.00;;;;;;;11.55;80.17;98220.67;79549;1298;3013205;-70
2023/04/03 08:44:36;;;;;;;6.00;3.70;;;;;;;11.47;80.58;98218.88;79099;1296;3011239;-67
2023/04/03 08:47:20;;;;;;;6.80;3.80;;;;;;;11.33;81.03;98220.73;78171;1295;3052932;-69
2023/04/03 08:49:51;;;;;;;3.90;2.20;;;;;;;11.28;81.68;98224.30;78139;1300;3056671;-67
2023/04/03 08:52:31;;;;;;;3.50;2.00;;;;;;;11.89;79.55;98223.98;79540;1298;3011609;-70
2023/04/03 08:55:03;;;;;;;3.40;2.20;;;;;;;12.30;76.96;98224.45;78268;1298;3052464;-68
2023/04/03 08:57:41;;;;;;;3.50;2.60;;;;;;;12.30;76.58;98222.52;79608;1297;3011330;-68
2023/04/03 09:00:14;;;;;;;3.80;2.50;;;;;;;12.01;77.03;98228.39;78393;1298;3053036;-67
2023/04/03 09:02:49;;;;;;;3.90;2.70;;;;;;;11.87;77.90;98231.66;79521;1300;3011893;-68
2023/04/03 09:05:18;;;;;;;4.70;3.00;;;;;;;11.74;78.50;98234.70;78335;1294;3070088;-67
2023/04/03 09:07:47;;;;;;;6.00;4.10;;;;;;;11.54;79.02;98236.59;79493;1298;3013206;-69
2023/04/03 09:10:20;;;;;;;6.50;4.50;;;;;;;11.44;79.81;98238.30;78309;1296;3025072;-67
2023/04/03 09:12:57;;;;;;;6.10;3.30;;;;;;;11.20;81.08;98240.23;79521;1296;3011739;-68
2023/04/03 09:15:26;;;;;;;1.60;1.40;;;;;;;11.08;82.50;98245.40;78454;1298;3055498;-67
2023/04/03 09:18:02;;;;;;;3.40;1.90;;;;;;;11.64;80.75;98246.91;79628;1307;3014815;-69
2023/04/03 09:20:35;;;;;;;4.70;2.20;;;;;;;12.26;78.33;98249.39;78379;1298;3053006;-66
2023/04/03 09:23:01;;;;;;;4.10;2.60;;;;;;;12.25;78.04;98251.77;79696;1299;3011840;-67
2023/04/03 09:25:32;;;;;;;4.90;2.90;;;;;;;12.10;78.63;98255.48;78377;1295;3026401;-70
2023/04/03 09:28:01;;;;;;;4.00;3.10;;;;;;;11.96;79.45;98258.34;79467;1301;3013539;-67
2023/04/03 09:30:29;;;;;;;5.20;2.80;;;;;;;11.77;80.01;98261.45;78397;1296;3049122;-64
2023/04/03 09:32:58;;;;;;;12.20;4.50;;;;;;;11.44;81.08;98259.33;79616;1299;3011779;-69
2023/04/03 09:35:26;;;;;;;7.50;3.60;;;;;;;11.19;82.62;98261.20;79661;1299;3011578;-70
2023/04/03 09:37:59;;;;;;;3.70;1.60;;;;;;;11.11;83.67;98263.19;78450;1298;3053544;-68
2023/04/03 09:40:26;;;;;;;5.10;2.30;;;;;;;11.45;81.25;98268.50;79730;1297;3011883;-67
2023/04/03 09:42:56;;;;;;;4.00;2.50;;;;;;;11.87;79.41;98273.77;78370;1299;3050707;-71
2023/04/03 09:45:34;;;;;;;4.90;3.00;;;;;;;12.05;79.09;98273.30;79661;1296;3012830;-71
2023/04/03 09:48:13;;;;;;;5.10;3.10;;;;;;;11.93;78.75;98274.81;78428;1302;3052460;-66
2023/04/03 09:50:56;;;;;;;6.00;3.40;;;;;;;11.85;79.35;98278.00;78303;1302;3052875;-71
2023/04/03 09:53:28;;;;;;;5.30;3.40;;;;;;;11.72;79.73;98282.23;78165;1300;3052499;-67
2023/04/03 09:55:55;;;;;;;7.30;3.90;;;;;;;11.55;81.31;98282.74;79536;1298;3012609;-69
2023/04/03 09:58:36;;;;;;;6.90;3.90;;;;;;;11.51;81.99;98284.97;78374;1305;3028483;-68
2023/04/03 10:01:04;;;;;;;3.70;1.70;;;;;;;11.42;82.51;98289.77;78304;1298;3070368;-67
2023/04/03 10:03:35;;;;;;;3.90;2.50;;;;;;;11.94;81.12;98291.58;79554;1298;3013923;-69
2023/04/03 10:06:03;;;;;;;2.40;1.60;;;;;;;12.53;79.46;98294.16;78312;1300;3049393;-67
2023/04/03 10:08:34;;;;;;;2.40;1.40;;;;;;;12.71;76.96;98298.89;79513;1297;3011910;-69
2023/04/03 10:11:19;;;;;;;3.10;1.80;;;;;;;12.78;76.21;98297.20;80665;1295;3049547;-67
2023/04/03 10:13:51;;;;;;;3.80;2.10;;;;;;;12.36;77.89;98298.55;80730;1299;3054061;-67
2023/04/03 10:16:20;;;;;;;;;;;;;;;12.12;79.70;98304.71;82147;1298;3011054;-67
2023/04/03 10:19:29;;;;;;;2.20;1.40;;;;;;;11.82;80.71;98308.77;80793;1295;3068560;-67
2023/04/03 10:22:04;;;;;;;2.20;1.10;;;;;;;11.53;81.43;98315.19;80858;1298;3051538;-66
2023/04/03 10:24:39;;;;;;;2.10;1.20;;;;;;;11.49;81.47;98315.33;81381;1296;3011247;-67
2023/04/03 10:27:26;;;;;;;3.60;1.00;;;;;;;11.32;83.58;98327.23;82008;1298;3011376;-73
2023/04/03 10:30:00;;;;;;;2.00;1.30;;;;;;;12.20;80.86;98321.73;80853;1296;3050095;-70
2023/04/03 10:32:31;;;;;;;3.80;1.60;;;;;;;12.79;77.50;98333.70;82095;1294;3011436;-74
2023/04/03 10:35:16;;;;;;;4.60;1.70;;;;;;;12.53;77.54;98334.19;78363;1295;3049299;-74
2023/04/03 10:37:58;;;;;;;4.20;1.80;;;;;;;12.45;76.98;98340.70;80765;1301;3053858;-75
2023/04/03 10:40:44;;;;;;;2.20;1.60;;;;;;;12.07;78.62;98339.48;80648;1297;3051133;-72
2023/04/03 10:43:17;;;;;;;4.40;2.30;;;;;;;11.88;79.17;98341.61;80743;1295;3068861;-71
2023/04/03 10:46:03;;;;;;;;;;;;;;;11.66;79.69;98340.38;81920;1298;3011472;-71
2023/04/03 10:48:57;;;;;;;5.90;2.50;;;;;;;11.47;81.05;98352.19;80749;1295;3056452;-71
2023/04/03 10:51:50;;;;;;;1.90;1.10;;;;;;;11.28;82.13;98359.85;80587;1296;3049532;-70
2023/04/03 10:54:23;;;;;;;3.10;1.90;;;;;;;11.98;80.60;98358.66;80609;1296;3053135;-71
2023/04/03 10:57:00;;;;;;;3.40;2.00;;;;;;;12.34;78.93;98357.92;81857;1296;3011224;-70
2023/04/03 10:59:49;;;;;;;5.50;2.40;;;;;;;12.32;78.48;98360.42;80644;1298;3052347;-71
2023/04/03 11:02:26;;;;;;;3.10;2.10;;;;;;;11.92;79.66;98363.01;80778;1301;3052067;-71
2023/04/03 11:04:59;;;;;;;4.90;2.40;;;;;;;11.46;82.18;98362.94;80662;1298;3070026;-65
2023/04/03 11:07:33;;;;;;;3.60;1.90;;;;;;;11.24;83.30;98369.81;81343;1301;3011397;-70
2023/04/03 11:10:13;;;;;;;3.40;1.70;;;;;;;10.97;84.70;98371.98;81938;1295;3011406;-69
2023/04/03 11:12:47;;;;;;;1.70;1.20;;;;;;;11.00;84.81;98377.19;80679;1296;3057888;-70
2023/04/03 11:15:19;;;;;;;1.40;1.00;;;;;;;11.42;84.38;98375.83;82073;1295;3011243;-65
2023/04/03 11:17:50;;;;;;;1.80;1.60;;;;;;;12.00;81.67;98380.13;80716;1301;3054710;-64
2023/04/03 11:20:19;;;;;;;3.90;2.20;;;;;;;11.85;82.00;98377.43;81859;1296;3011652;-64
2023/04/03 11:22:52;;;;;;;3.10;1.90;;;;;;;11.73;80.64;98390.17;80573;1301;3051229;-65
2023/04/03 11:25:23;;;;;;;6.30;3.10;;;;;;;11.56;80.40;98388.19;81993;1298;3011341;-67
2023/04/03 11:28:01;;;;;;;5.20;2.70;;;;;;;11.20;81.60;98383.75;80669;1296;3070320;-65
2023/04/03 11:30:42;;;;;;;5.10;3.00;;;;;;;10.95;82.76;98386.45;80750;1296;3052343;-68
2023/04/03 11:33:38;;;;;;;3.50;1.90;;;;;;;11.05;82.47;98392.35;80688;1296;3056237;-69
2023/04/03 11:36:30;;;;;;;5.60;2.80;;;;;;;11.67;81.02;98397.72;80826;1295;3051051;-73